createdAt,value
2019-02-22T00:00:41.036Z,9.80
2019-02-22T00:03:28.916Z,9.90
2019-02-22T00:06:17.127Z,9.90
2019-02-22T00:09:06.467Z,9.80
2019-02-22T00:11:54.947Z,9.80
2019-02-22T00:14:42.449Z,9.90
2019-02-22T00:17:30.268Z,9.90
2019-02-22T00:20:18.752Z,9.80
2019-02-22T00:23:07.347Z,9.90
2019-02-22T00:25:54.948Z,9.80
2019-02-22T00:28:43.245Z,9.90
2019-02-22T00:31:31.809Z,9.80
2019-02-22T00:34:20.520Z,9.80
2019-02-22T00:37:09.286Z,9.80
2019-02-22T00:39:57.360Z,9.80
2019-02-22T00:42:46.302Z,9.80
2019-02-22T00:45:34.325Z,9.80
2019-02-22T00:48:22.943Z,9.80
2019-02-22T00:51:11.198Z,9.80
2019-02-22T00:53:59.658Z,9.80
2019-02-22T00:56:47.179Z,9.80
2019-02-22T00:59:35.292Z,9.80
2019-02-22T01:02:23.644Z,9.80
2019-02-22T01:05:11.311Z,9.80
2019-02-22T01:07:59.526Z,9.70
2019-02-22T01:10:47.911Z,9.80
2019-02-22T01:13:36.149Z,9.70
2019-02-22T01:16:24.256Z,9.70
2019-02-22T01:19:11.835Z,9.80
2019-02-22T01:21:59.864Z,9.80
2019-02-22T01:24:47.800Z,9.80
2019-02-22T01:27:36.245Z,9.80
2019-02-22T01:30:24.607Z,9.90
2019-02-22T01:33:12.916Z,9.80
2019-02-22T01:36:01.252Z,9.90
2019-02-22T01:38:49.721Z,9.80
2019-02-22T01:41:38.176Z,9.90
2019-02-22T01:44:26.411Z,9.80
2019-02-22T01:47:14.981Z,9.80
2019-02-22T01:50:03.320Z,9.90
2019-02-22T01:52:51.532Z,9.80
2019-02-22T01:55:39.013Z,9.80
2019-02-22T01:58:26.708Z,9.80
2019-02-22T02:01:15.091Z,9.80
2019-02-22T02:04:03.293Z,9.80
2019-02-22T02:06:51.512Z,9.80
2019-02-22T02:09:40.164Z,9.80
2019-02-22T02:12:28.209Z,9.70
2019-02-22T02:15:16.548Z,9.70
2019-02-22T02:18:04.229Z,9.80
2019-02-22T02:20:52.149Z,9.80
2019-02-22T02:23:40.513Z,9.80
2019-02-22T02:26:28.620Z,9.90
2019-02-22T02:29:16.803Z,9.70
2019-02-22T02:32:05.258Z,9.70
2019-02-22T02:34:52.966Z,9.70
2019-02-22T02:37:40.503Z,9.70
2019-02-22T02:40:28.794Z,9.70
2019-02-22T02:43:17.004Z,9.70
2019-02-22T02:46:05.331Z,9.70
2019-02-22T02:48:53.688Z,9.70
2019-02-22T02:51:41.516Z,9.70
2019-02-22T02:54:29.740Z,9.70
2019-02-22T02:57:18.244Z,9.70
2019-02-22T03:00:08.275Z,9.70
2019-02-22T03:02:56.333Z,9.60
2019-02-22T03:06:07.872Z,9.60
2019-02-22T03:08:56.157Z,9.60
2019-02-22T03:11:44.467Z,9.80
2019-02-22T03:14:32.035Z,9.70
2019-02-22T03:17:20.371Z,9.70
2019-02-22T03:20:08.793Z,9.70
2019-02-22T03:22:56.641Z,9.80
2019-02-22T03:25:44.662Z,9.80
2019-02-22T03:28:33.074Z,9.70
2019-02-22T03:31:21.374Z,9.70
2019-02-22T03:34:09.953Z,9.70
2019-02-22T03:36:57.765Z,9.70
2019-02-22T03:39:45.683Z,9.70
2019-02-22T03:42:33.845Z,9.70
2019-02-22T03:45:22.315Z,9.70
2019-02-22T03:48:10.887Z,9.70
2019-02-22T03:50:58.896Z,9.70
2019-02-22T03:53:57.532Z,9.70
2019-02-22T03:56:45.755Z,9.70
2019-02-22T03:59:33.620Z,9.70
2019-02-22T04:02:22.158Z,9.70
2019-02-22T04:05:11.101Z,9.80
2019-02-22T04:07:59.660Z,9.80
2019-02-22T04:10:48.144Z,9.70
2019-02-22T04:13:36.728Z,9.70
2019-02-22T04:16:25.191Z,9.70
2019-02-22T04:19:12.784Z,9.60
2019-02-22T04:22:00.541Z,9.60
2019-02-22T04:24:48.913Z,9.60
2019-02-22T04:27:37.389Z,9.60
2019-02-22T04:30:24.980Z,9.60
2019-02-22T04:33:13.220Z,9.60
2019-02-22T04:36:01.500Z,9.70
2019-02-22T04:38:50.084Z,9.60
2019-02-22T04:41:38.047Z,9.60
2019-02-22T04:44:25.932Z,9.60
2019-02-22T04:47:14.427Z,9.70
2019-02-22T04:50:02.687Z,9.60
2019-02-22T04:52:50.597Z,9.60
2019-02-22T04:55:39.177Z,9.60
2019-02-22T04:58:27.223Z,9.60
2019-02-22T05:01:15.804Z,9.50
2019-02-22T05:04:03.661Z,9.50
2019-02-22T05:06:51.405Z,9.50
2019-02-22T05:09:39.700Z,9.50
2019-02-22T05:12:27.304Z,9.40
2019-02-22T05:15:15.660Z,9.40
2019-02-22T05:18:04.056Z,9.50
2019-02-22T05:20:52.248Z,9.50
2019-02-22T05:23:41.005Z,9.60
2019-02-22T05:26:29.118Z,9.60
2019-02-22T05:29:17.788Z,9.50
2019-02-22T05:32:05.975Z,9.50
2019-02-22T05:34:54.044Z,9.50
2019-02-22T05:37:41.859Z,9.60
2019-02-22T05:40:29.931Z,9.60
2019-02-22T05:43:17.914Z,9.50
2019-02-22T05:46:06.181Z,9.60
2019-02-22T05:48:54.498Z,9.70
2019-02-22T05:51:42.415Z,9.70
2019-02-22T05:54:29.956Z,9.60
2019-02-22T05:57:18.255Z,9.50
2019-02-22T06:00:07.217Z,9.60
2019-02-22T06:02:55.636Z,9.60
2019-02-22T06:05:43.595Z,9.60
2019-02-22T06:08:31.871Z,9.70
2019-02-22T06:11:19.721Z,9.60
2019-02-22T06:14:08.458Z,9.60
2019-02-22T06:16:56.576Z,9.70
2019-02-22T06:19:44.428Z,9.60
2019-02-22T06:22:32.580Z,9.60
2019-02-22T06:25:20.326Z,9.50
2019-02-22T06:28:08.440Z,9.60
2019-02-22T06:30:56.892Z,9.50
2019-02-22T06:33:45.163Z,9.50
2019-02-22T06:36:33.400Z,9.50
2019-02-22T06:39:21.678Z,9.50
2019-02-22T06:42:09.989Z,9.60
2019-02-22T06:44:58.232Z,9.50
2019-02-22T06:47:46.845Z,9.60
2019-02-22T06:50:34.744Z,9.60
2019-02-22T06:53:23.383Z,9.50
2019-02-22T06:56:10.936Z,9.50
2019-02-22T06:58:59.357Z,9.60
2019-02-22T07:01:50.018Z,9.70
2019-02-22T07:04:37.697Z,9.70
2019-02-22T07:07:25.292Z,9.70
2019-02-22T07:10:12.994Z,9.80
2019-02-22T07:13:04.696Z,9.70
2019-02-22T07:15:52.652Z,9.70
2019-02-22T07:18:40.916Z,9.80
2019-02-22T07:21:43.676Z,9.90
2019-02-22T07:24:18.549Z,9.90
2019-02-22T07:27:06.672Z,9.90
2019-02-22T07:29:55.208Z,9.90
2019-02-22T07:32:43.407Z,9.90
2019-02-22T07:35:32.084Z,10.00
2019-02-22T07:38:19.694Z,10.00
2019-02-22T07:41:07.232Z,10.10
2019-02-22T07:43:54.971Z,10.10
2019-02-22T07:46:43.333Z,10.10
2019-02-22T07:49:31.732Z,10.10
2019-02-22T07:52:19.566Z,10.20
2019-02-22T07:55:08.533Z,10.10
2019-02-22T07:57:57.108Z,10.20
2019-02-22T08:00:45.064Z,10.30
2019-02-22T08:03:33.576Z,10.40
2019-02-22T08:06:21.976Z,10.50
2019-02-22T08:09:10.198Z,10.50
2019-02-22T08:11:58.093Z,10.60
2019-02-22T08:14:46.083Z,10.60
2019-02-22T08:17:34.071Z,10.80
2019-02-22T08:20:22.483Z,10.90
2019-02-22T08:23:10.493Z,11.00
2019-02-22T08:25:59.387Z,11.10
2019-02-22T08:28:47.510Z,11.00
2019-02-22T08:31:36.273Z,11.10
2019-02-22T08:34:24.183Z,11.20
2019-02-22T08:37:12.267Z,11.20
2019-02-22T08:40:02.384Z,11.30
2019-02-22T08:42:49.971Z,11.30
2019-02-22T08:45:38.474Z,11.20
2019-02-22T08:48:26.026Z,11.50
2019-02-22T08:51:14.246Z,11.60
2019-02-22T08:54:02.485Z,11.80
2019-02-22T08:56:50.786Z,11.90
2019-02-22T08:59:38.787Z,12.10
2019-02-22T09:02:26.756Z,11.80
2019-02-22T09:05:15.463Z,11.80
2019-02-22T09:08:04.181Z,12.00
2019-02-22T09:11:00.096Z,12.20
2019-02-22T09:13:43.891Z,12.50
2019-02-22T09:16:32.244Z,12.80
2019-02-22T09:19:20.462Z,13.00
2019-02-22T09:22:08.828Z,13.00
2019-02-22T09:24:57.194Z,12.80
2019-02-22T09:27:44.751Z,13.20
2019-02-22T09:30:32.519Z,13.30
2019-02-22T09:33:19.964Z,13.30
2019-02-22T09:36:08.467Z,13.00
2019-02-22T09:38:56.103Z,13.20
2019-02-22T09:41:44.304Z,13.30
2019-02-22T09:44:32.247Z,13.90
2019-02-22T09:47:20.799Z,14.10
2019-02-22T09:50:09.792Z,14.00
2019-02-22T09:52:58.041Z,14.00
2019-02-22T09:55:46.246Z,14.30
2019-02-22T09:58:34.727Z,14.10
2019-02-22T10:01:23.265Z,14.30
2019-02-22T10:04:11.479Z,14.40
2019-02-22T10:06:59.459Z,14.80
2019-02-22T10:09:47.047Z,15.50
2019-02-22T10:12:35.086Z,16.00
2019-02-22T10:15:23.268Z,16.50
2019-02-22T10:18:11.846Z,17.50
2019-02-22T10:21:00.183Z,18.00
2019-02-22T10:23:48.510Z,17.50
2019-02-22T10:26:36.789Z,17.70
2019-02-22T10:29:24.287Z,18.00
2019-02-22T10:32:12.416Z,18.70
2019-02-22T10:35:00.527Z,19.50
2019-02-22T10:37:49.135Z,20.60
2019-02-22T10:40:39.214Z,19.70
2019-02-22T10:43:27.333Z,18.30
2019-02-22T10:46:14.942Z,16.30
2019-02-22T10:49:03.267Z,15.20
2019-02-22T10:51:51.835Z,14.70
2019-02-22T10:54:40.015Z,14.20
2019-02-22T10:57:28.002Z,14.40
2019-02-22T11:00:15.882Z,14.40
2019-02-22T11:03:04.374Z,14.30
2019-02-22T11:05:51.867Z,15.20
2019-02-22T11:08:39.976Z,16.40
2019-02-22T11:11:28.491Z,18.70
2019-02-22T11:14:16.563Z,19.70
2019-02-22T11:17:05.625Z,21.30
2019-02-22T11:19:53.659Z,22.00
2019-02-22T11:22:41.960Z,20.90
2019-02-22T11:25:30.155Z,19.30
2019-02-22T11:28:18.598Z,17.40
2019-02-22T11:31:06.650Z,16.00
2019-02-22T11:33:55.024Z,15.60
2019-02-22T11:36:43.169Z,15.30
2019-02-22T11:39:30.976Z,14.90
2019-02-22T11:42:19.160Z,14.80
2019-02-22T11:45:07.487Z,14.80
2019-02-22T11:47:56.145Z,14.90
2019-02-22T11:50:44.095Z,15.10
2019-02-22T11:53:32.515Z,15.90
2019-02-22T11:56:20.853Z,16.50
2019-02-22T11:59:08.650Z,16.10
2019-02-22T12:01:57.776Z,15.70
2019-02-22T12:04:46.260Z,15.00
2019-02-22T12:07:34.935Z,14.60
2019-02-22T12:10:23.559Z,14.30
2019-02-22T12:13:11.653Z,14.30
2019-02-22T12:15:59.933Z,14.30
2019-02-22T12:18:48.536Z,15.50
2019-02-22T12:21:37.312Z,17.30
2019-02-22T12:24:25.579Z,17.80
2019-02-22T12:27:14.271Z,17.30
2019-02-22T12:30:02.546Z,16.20
2019-02-22T12:32:51.055Z,15.60
2019-02-22T12:35:39.143Z,15.40
2019-02-22T12:38:28.416Z,15.00
2019-02-22T12:41:16.101Z,14.70
2019-02-22T12:44:03.639Z,14.90
2019-02-22T12:46:51.854Z,15.50
2019-02-22T12:49:40.396Z,16.20
2019-02-22T12:52:28.491Z,18.40
2019-02-22T12:55:16.176Z,20.10
2019-02-22T12:58:04.537Z,19.90
2019-02-22T13:00:52.652Z,18.70
2019-02-22T13:03:40.970Z,17.90
2019-02-22T13:06:29.175Z,17.00
2019-02-22T13:09:17.415Z,16.30
2019-02-22T13:12:13.584Z,15.40
2019-02-22T13:14:54.793Z,14.90
2019-02-22T13:17:43.041Z,14.60
2019-02-22T13:20:31.760Z,14.50
2019-02-22T13:23:20.082Z,14.40
2019-02-22T13:26:08.619Z,14.30
2019-02-22T13:28:56.891Z,14.40
2019-02-22T13:31:44.659Z,14.60
2019-02-22T13:34:32.822Z,14.80
2019-02-22T13:37:20.691Z,14.90
2019-02-22T13:40:10.342Z,15.10
2019-02-22T13:42:58.844Z,14.90
2019-02-22T13:45:47.464Z,14.60
2019-02-22T13:48:35.880Z,14.40
2019-02-22T13:51:24.236Z,14.20
2019-02-22T13:54:12.573Z,14.20
2019-02-22T13:57:00.119Z,14.10
2019-02-22T13:59:48.278Z,14.00
2019-02-22T14:02:36.923Z,14.10
2019-02-22T14:05:25.143Z,14.00
2019-02-22T14:08:13.405Z,13.80
2019-02-22T14:11:01.545Z,13.60
2019-02-22T14:13:49.043Z,13.60
2019-02-22T14:16:37.655Z,13.60
2019-02-22T14:19:25.946Z,13.70
2019-02-22T14:22:13.883Z,13.70
2019-02-22T14:25:01.731Z,13.50
2019-02-22T14:27:50.434Z,13.40
2019-02-22T14:30:38.738Z,13.50
2019-02-22T14:33:26.980Z,13.50
2019-02-22T14:36:14.919Z,13.50
2019-02-22T14:39:03.050Z,13.70
2019-02-22T14:41:50.591Z,13.60
2019-02-22T14:44:39.067Z,13.50
2019-02-22T14:47:27.090Z,13.30
2019-02-22T14:50:15.492Z,13.30
2019-02-22T14:53:03.874Z,13.20
2019-02-22T14:55:51.682Z,13.20
2019-02-22T14:58:39.639Z,13.10
2019-02-22T15:01:27.458Z,13.00
2019-02-22T15:04:16.537Z,12.80
2019-02-22T15:07:05.405Z,12.80
2019-02-22T15:09:53.591Z,12.70
2019-02-22T15:12:41.526Z,12.70
2019-02-22T15:15:59.923Z,12.60
2019-02-22T15:18:38.027Z,12.50
2019-02-22T15:21:26.307Z,12.50
2019-02-22T15:24:14.163Z,12.50
2019-02-22T15:27:01.698Z,12.40
2019-02-22T15:29:50.176Z,12.30
2019-02-22T15:32:38.509Z,12.30
2019-02-22T15:35:26.956Z,12.30
2019-02-22T15:38:14.948Z,12.30
2019-02-22T15:41:03.519Z,12.30
2019-02-22T15:43:51.794Z,12.20
2019-02-22T15:46:39.346Z,12.20
2019-02-22T15:49:27.700Z,12.30
2019-02-22T15:52:15.818Z,12.20
2019-02-22T15:55:04.708Z,12.20
2019-02-22T15:57:52.992Z,12.10
2019-02-22T16:00:41.503Z,12.00
2019-02-22T16:03:48.751Z,11.90
2019-02-22T16:06:36.499Z,11.90
2019-02-22T16:09:25.182Z,11.90
2019-02-22T16:12:13.110Z,11.90
2019-02-22T16:15:01.540Z,11.90
2019-02-22T16:17:49.144Z,12.00
2019-02-22T16:20:37.724Z,12.00
2019-02-22T16:23:25.595Z,11.80
2019-02-22T16:26:15.623Z,11.80
2019-02-22T16:29:03.626Z,11.80
2019-02-22T16:31:52.374Z,11.70
2019-02-22T16:34:43.631Z,11.70
2019-02-22T16:37:30.485Z,11.70
2019-02-22T16:40:18.780Z,11.70
2019-02-22T16:43:06.568Z,11.70
2019-02-22T16:45:54.940Z,11.60
2019-02-22T16:48:43.736Z,11.70
2019-02-22T16:51:31.536Z,11.60
2019-02-22T16:54:20.035Z,11.60
2019-02-22T16:57:07.754Z,11.60
2019-02-22T16:59:56.353Z,11.60
2019-02-22T17:02:44.341Z,11.50
2019-02-22T17:05:32.723Z,11.50
2019-02-22T17:08:21.540Z,11.30
2019-02-22T17:11:09.524Z,11.40
2019-02-22T17:13:57.996Z,11.40
2019-02-22T17:16:46.821Z,11.40
2019-02-22T17:19:35.159Z,11.30
2019-02-22T17:22:22.783Z,11.30
2019-02-22T17:25:12.493Z,11.30
2019-02-22T17:28:00.976Z,11.30
2019-02-22T17:30:49.641Z,11.30
2019-02-22T17:33:37.507Z,11.20
2019-02-22T17:36:27.229Z,11.20
2019-02-22T17:39:15.444Z,11.20
2019-02-22T17:42:03.127Z,11.20
2019-02-22T17:44:51.895Z,11.10
2019-02-22T17:47:40.495Z,11.10
2019-02-22T17:50:28.852Z,11.10
2019-02-22T17:53:17.185Z,11.10
2019-02-22T17:56:05.184Z,11.10
2019-02-22T17:58:52.720Z,11.00
2019-02-22T18:01:40.834Z,11.00
2019-02-22T18:04:29.219Z,11.00
2019-02-22T18:07:17.531Z,10.90
2019-02-22T18:10:05.612Z,10.90
2019-02-22T18:12:54.192Z,10.90
2019-02-22T18:15:42.418Z,10.80
2019-02-22T18:18:30.804Z,10.80
2019-02-22T18:21:19.083Z,10.80
2019-02-22T18:24:07.372Z,10.70
2019-02-22T18:26:55.983Z,10.70
2019-02-22T18:29:44.468Z,10.70
2019-02-22T18:32:32.801Z,10.60
2019-02-22T18:35:20.904Z,10.60
2019-02-22T18:38:08.679Z,10.60
2019-02-22T18:40:57.216Z,10.50
2019-02-22T18:43:45.902Z,10.40
2019-02-22T18:46:34.208Z,10.40
2019-02-22T18:49:22.263Z,10.40
2019-02-22T18:52:10.924Z,10.30
2019-02-22T18:54:59.337Z,10.20
2019-02-22T18:57:47.687Z,10.20
2019-02-22T19:00:36.330Z,10.20
2019-02-22T19:03:24.407Z,10.10
2019-02-22T19:06:11.969Z,10.00
2019-02-22T19:09:00.260Z,10.00
2019-02-22T19:11:49.195Z,10.00
2019-02-22T19:14:37.232Z,9.80
2019-02-22T19:17:30.326Z,9.70
2019-02-22T19:20:15.746Z,9.70
2019-02-22T19:23:04.181Z,9.60
2019-02-22T19:25:51.919Z,9.50
2019-02-22T19:28:40.220Z,9.40
2019-02-22T19:31:28.169Z,9.40
2019-02-22T19:34:16.369Z,9.30
2019-02-22T19:37:04.588Z,9.30
2019-02-22T19:39:52.912Z,9.20
2019-02-22T19:42:41.532Z,9.20
2019-02-22T19:45:30.008Z,9.20
2019-02-22T19:48:18.187Z,9.10
2019-02-22T19:51:06.023Z,9.00
2019-02-22T19:53:54.729Z,9.00
2019-02-22T19:56:43.237Z,9.00
2019-02-22T19:59:32.515Z,8.90
2019-02-22T20:02:21.052Z,8.80
2019-02-22T20:05:10.602Z,8.90
2019-02-22T20:07:58.943Z,8.80
2019-02-22T20:10:47.303Z,8.80
2019-02-22T20:13:35.760Z,8.70
2019-02-22T20:16:24.596Z,8.60
2019-02-22T20:19:13.318Z,8.60
2019-02-22T20:22:01.627Z,8.60
2019-02-22T20:24:49.472Z,8.50
2019-02-22T20:27:37.381Z,8.50
2019-02-22T20:30:25.379Z,8.50
2019-02-22T20:33:14.064Z,8.40
2019-02-22T20:36:01.825Z,8.40
2019-02-22T20:38:50.172Z,8.30
2019-02-22T20:41:38.607Z,8.30
2019-02-22T20:44:27.055Z,8.20
2019-02-22T20:47:14.932Z,8.20
2019-02-22T20:50:03.349Z,8.20
2019-02-22T20:52:51.833Z,8.20
2019-02-22T20:55:39.958Z,8.10
2019-02-22T20:58:28.208Z,8.10
2019-02-22T21:01:16.484Z,8.10
2019-02-22T21:04:04.733Z,8.00
2019-02-22T21:06:52.558Z,8.00
2019-02-22T21:09:40.481Z,7.90
2019-02-22T21:12:28.623Z,7.90
2019-02-22T21:15:16.975Z,7.90
2019-02-22T21:18:15.600Z,7.80
2019-02-22T21:20:54.174Z,7.80
2019-02-22T21:23:42.662Z,7.80
2019-02-22T21:26:31.266Z,7.80
2019-02-22T21:29:19.487Z,7.80
2019-02-22T21:32:07.678Z,7.70
2019-02-22T21:34:55.990Z,7.70
2019-02-22T21:37:44.455Z,7.60
2019-02-22T21:40:32.495Z,7.60
2019-02-22T21:43:21.031Z,7.60
2019-02-22T21:46:09.313Z,7.60
2019-02-22T21:48:57.955Z,7.50
2019-02-22T21:51:46.059Z,7.50
2019-02-22T21:54:33.903Z,7.40
2019-02-22T21:57:22.130Z,7.40
2019-02-22T22:00:13.425Z,7.30
2019-02-22T22:03:01.782Z,7.30
2019-02-22T22:05:50.762Z,7.30
2019-02-22T22:08:38.679Z,7.20
2019-02-22T22:11:26.651Z,7.20
2019-02-22T22:14:15.011Z,7.20
2019-02-22T22:17:03.270Z,7.10
2019-02-22T22:19:51.891Z,7.10
2019-02-22T22:22:40.460Z,7.10
2019-02-22T22:25:28.096Z,7.10
2019-02-22T22:28:16.490Z,7.00
2019-02-22T22:31:04.628Z,7.00
2019-02-22T22:33:52.546Z,7.00
2019-02-22T22:36:41.004Z,6.90
2019-02-22T22:39:29.216Z,6.80
2019-02-22T22:42:16.991Z,6.80
2019-02-22T22:45:06.102Z,6.80
2019-02-22T22:47:54.634Z,6.80
2019-02-22T22:50:42.282Z,6.80
2019-02-22T22:53:30.911Z,6.70
2019-02-22T22:56:18.732Z,6.70
2019-02-22T22:59:06.975Z,6.70
2019-02-22T23:01:56.395Z,6.60
2019-02-22T23:04:44.106Z,6.60
2019-02-22T23:07:32.023Z,6.60
2019-02-22T23:10:20.310Z,6.60
2019-02-22T23:13:08.987Z,6.60
2019-02-22T23:15:57.341Z,6.50
2019-02-22T23:18:45.987Z,6.50
2019-02-22T23:21:34.770Z,6.50
2019-02-22T23:24:22.801Z,6.50
2019-02-22T23:27:11.346Z,6.50
2019-02-22T23:29:59.561Z,6.50
2019-02-22T23:32:47.716Z,6.40
2019-02-22T23:35:35.923Z,6.40
2019-02-22T23:38:24.176Z,6.30
2019-02-22T23:41:12.544Z,6.30
2019-02-22T23:44:01.423Z,6.20
2019-02-22T23:46:49.270Z,6.20
2019-02-22T23:49:37.694Z,6.20
2019-02-22T23:52:26.182Z,6.20
2019-02-22T23:55:15.027Z,6.20
2019-02-22T23:58:03.704Z,6.20
